Terminal Aerodrome Forecast
Issued by NWS

Home | Current Version | Previous Version | Text Only | Print | Product List | Glossary On
Versions: 1 2 3 4 5 6 7 8 9 10 11 12 13 14 15 16 17
827
FTAK31 PAJN 130527
TAFAJN
TAF
PAJN 130527Z 1306/1406 08009KT 6SM -RA BR SCT004 BKN030 OVC060
     FM130900 09010KT P6SM -RA OVC040
     FM131300 10011KT 6SM -RA BKN025 OVC035
     FM132100 11015KT 5SM -RA BKN025 OVC035 WS020/15035KT
     FM140200 11016G25KT 4SM -RA BR BKN015 OVC035=

USA.gov is the U.S. government's official web portal to all federal, state and local government web resources and services.